Time;durP1;ratioP1;P1;durP2;ratioP2;P2;SDS_P1;SDS_P2;PMS_P1;PMS_P2;Temp;Humidity;BMP_temperature;BMP_pressure;BME280_temperature;BME280_humidity;BME280_pressure;Samples;Min_cycle;Max_cycle;Signal;HPM_P1;HPM_P2
2023/11/29 00:01:57;;;;;;;8.18;5.82;;;;;;;2.32;86.93;93115.88;5126949;28;20093;-67
2023/11/29 00:04:22;;;;;;;7.18;5.32;;;;;;;2.36;87.84;93124.94;5109800;28;20032;-67
2023/11/29 00:06:48;;;;;;;5.65;4.25;;;;;;;2.46;87.34;93131.00;5110010;28;20032;-69
2023/11/29 00:09:14;;;;;;;8.63;4.78;;;;;;;2.46;87.02;93142.06;5109993;28;20027;-67
2023/11/29 00:11:39;;;;;;;7.15;5.07;;;;;;;2.52;87.31;93156.16;5093122;28;20034;-67
2023/11/29 00:14:05;;;;;;;6.72;4.15;;;;;;;2.57;85.90;93148.91;5108799;28;20027;-67
2023/11/29 00:16:31;;;;;;;7.18;5.07;;;;;;;2.49;85.86;93179.47;5111208;28;20034;-67
2023/11/29 00:18:57;;;;;;;5.45;4.25;;;;;;;2.65;85.48;93185.03;5109729;28;20031;-68
2023/11/29 00:21:22;;;;;;;7.07;4.60;;;;;;;2.65;84.71;93182.47;5109821;28;20497;-67
2023/11/29 00:23:48;;;;;;;7.60;5.40;;;;;;;2.46;85.25;93211.25;5108731;28;20144;-67
2023/11/29 00:26:13;;;;;;;7.82;5.32;;;;;;;2.46;85.64;93215.59;5109610;28;20473;-67
2023/11/29 00:28:39;;;;;;;11.98;9.57;;;;;;;2.46;87.43;93207.88;5109790;28;20019;-67
2023/11/29 00:31:04;;;;;;;14.02;10.10;;;;;;;2.56;88.73;93213.13;5108163;28;20467;-67
2023/11/29 00:33:29;;;;;;;15.73;9.85;;;;;;;2.48;88.40;93211.16;5110915;28;20035;-67
2023/11/29 00:35:55;;;;;;;13.13;9.40;;;;;;;2.62;88.16;93217.78;5110922;28;20035;-67
2023/11/29 00:38:21;;;;;;;14.43;11.57;;;;;;;2.31;87.60;93196.22;5109637;28;20032;-67
2023/11/29 00:40:46;;;;;;;11.93;8.73;;;;;;;2.42;87.96;93216.72;5108682;28;20119;-68
2023/11/29 00:43:12;;;;;;;12.23;9.55;;;;;;;2.38;88.02;93212.78;5110851;28;20036;-67
2023/11/29 00:45:37;;;;;;;10.73;8.40;;;;;;;2.30;88.45;93223.63;5109698;28;20432;-67
2023/11/29 00:48:03;;;;;;;10.00;8.00;;;;;;;2.50;87.13;93224.66;5109353;28;20055;-68
2023/11/29 00:50:28;;;;;;;10.40;7.28;;;;;;;2.64;87.13;93237.22;5108188;28;20028;-67
2023/11/29 00:52:53;;;;;;;15.02;8.57;;;;;;;2.62;86.87;93239.13;5112451;28;20024;-67
2023/11/29 00:55:19;;;;;;;14.35;10.13;;;;;;;2.67;86.93;93259.25;5113427;28;20437;-67
2023/11/29 00:57:44;;;;;;;12.80;8.85;;;;;;;2.53;87.30;93257.75;5113368;28;20031;-67
2023/11/29 01:00:10;;;;;;;11.90;8.38;;;;;;;2.51;88.78;93246.81;5113309;28;20031;-67
2023/11/29 01:02:36;;;;;;;10.48;8.32;;;;;;;2.65;88.26;93266.28;5096360;28;20114;-67
2023/11/29 01:05:01;;;;;;;11.60;8.90;;;;;;;2.62;88.38;93269.88;5113275;28;20024;-67
2023/11/29 01:07:27;;;;;;;10.10;7.60;;;;;;;2.26;88.72;93244.44;5094668;28;20050;-67
2023/11/29 01:09:52;;;;;;;7.72;6.10;;;;;;;2.69;86.67;93276.16;5114321;28;20026;-68
2023/11/29 01:12:18;;;;;;;8.07;5.93;;;;;;;2.61;85.94;93273.34;5113120;28;20028;-67
2023/11/29 01:14:43;;;;;;;7.97;5.50;;;;;;;2.45;87.67;93295.94;5113124;28;20399;-67
2023/11/29 01:17:08;;;;;;;8.20;6.10;;;;;;;2.53;87.99;93290.25;5094937;28;20030;-68
2023/11/29 01:19:34;;;;;;;6.75;5.15;;;;;;;2.50;88.27;93299.00;5114071;28;20034;-67
2023/11/29 01:21:59;;;;;;;9.65;6.93;;;;;;;2.48;86.48;93277.81;5114000;28;20038;-67
2023/11/29 01:24:25;;;;;;;8.75;7.07;;;;;;;2.63;87.10;93291.19;5112838;28;20034;-67
2023/11/29 01:26:50;;;;;;;6.38;5.15;;;;;;;2.64;87.49;93303.06;5081105;28;20509;-67
2023/11/29 01:29:16;;;;;;;5.90;4.57;;;;;;;2.68;86.68;93295.03;5092389;28;20497;-67
2023/11/29 01:31:41;;;;;;;6.93;5.03;;;;;;;2.73;87.66;93314.38;5093614;28;20047;-67
2023/11/29 01:34:06;;;;;;;6.18;4.47;;;;;;;2.62;87.82;93282.69;5075329;28;20035;-67
2023/11/29 01:36:32;;;;;;;8.68;6.60;;;;;;;2.73;88.37;93322.06;5110877;28;20473;-67
2023/11/29 01:38:57;;;;;;;6.90;4.68;;;;;;;2.81;89.70;93320.56;5112445;28;20081;-67
2023/11/29 01:41:23;;;;;;;5.43;4.00;;;;;;;2.96;89.71;93333.97;5113739;28;20019;-67
2023/11/29 01:43:48;;;;;;;8.55;4.70;;;;;;;2.75;89.58;93304.84;5111913;28;20024;-67
2023/11/29 01:46:14;;;;;;;5.90;4.53;;;;;;;3.08;89.60;93343.28;5112278;28;20382;-67
2023/11/29 01:48:39;;;;;;;6.75;4.97;;;;;;;3.03;89.30;93327.44;5113404;28;20043;-67
2023/11/29 01:51:05;;;;;;;4.68;4.18;;;;;;;3.04;89.56;93339.34;5078343;28;20483;-67
2023/11/29 01:53:31;;;;;;;4.53;3.22;;;;;;;3.10;90.02;93346.56;5093685;28;20041;-68
2023/11/29 01:55:57;;;;;;;4.32;3.10;;;;;;;3.22;90.01;93349.13;5095375;28;20024;-67
2023/11/29 01:58:24;;;;;;;4.10;2.88;;;;;;;3.07;89.52;93348.56;5112099;28;20418;-67
2023/11/29 02:00:49;;;;;;;4.45;3.17;;;;;;;3.08;89.36;93348.41;5095014;28;20027;-67
2023/11/29 02:03:15;;;;;;;3.50;2.30;;;;;;;3.11;89.78;93353.31;5110984;28;20047;-67
2023/11/29 02:05:40;;;;;;;3.28;2.25;;;;;;;3.20;89.63;93359.50;5111456;28;20035;-67
2023/11/29 02:08:06;;;;;;;3.03;2.33;;;;;;;3.11;90.10;93353.31;5111961;28;20489;-67
2023/11/29 02:10:31;;;;;;;2.70;2.13;;;;;;;3.07;89.32;93354.50;5093620;28;20489;-67
2023/11/29 02:12:57;;;;;;;3.42;2.75;;;;;;;2.96;88.97;93369.91;5094769;28;20027;-67
2023/11/29 02:15:22;;;;;;;2.88;2.00;;;;;;;3.02;88.63;93377.13;5094886;28;20032;-67
2023/11/29 02:17:48;;;;;;;2.72;1.92;;;;;;;3.01;88.55;93362.66;5112988;28;20032;-67
2023/11/29 02:20:14;;;;;;;2.97;2.00;;;;;;;3.05;87.19;93358.94;5111490;27;20035;-67
2023/11/29 02:22:39;;;;;;;3.42;2.70;;;;;;;3.12;87.41;93369.53;5094986;28;20037;-67
2023/11/29 02:25:05;;;;;;;3.28;2.25;;;;;;;3.20;87.16;93368.94;5112363;28;20492;-67
2023/11/29 02:27:30;;;;;;;3.40;2.03;;;;;;;3.23;85.75;93366.13;5113047;28;20028;-68
2023/11/29 02:29:56;;;;;;;3.78;2.30;;;;;;;2.99;87.02;93371.41;5110208;28;20044;-67
2023/11/29 02:32:21;;;;;;;2.83;1.92;;;;;;;3.05;88.13;93363.25;5111595;28;20023;-67
2023/11/29 02:34:47;;;;;;;4.03;2.47;;;;;;;2.92;88.24;93353.09;5128561;27;20062;-67
2023/11/29 02:37:12;;;;;;;3.83;2.47;;;;;;;2.83;87.75;93358.94;5111418;28;20473;-67
2023/11/29 02:39:39;;;;;;;4.75;2.83;;;;;;;2.89;88.29;93366.16;5109352;28;20039;-67
2023/11/29 02:42:04;;;;;;;3.15;1.70;;;;;;;2.80;87.98;93365.09;5112727;28;20397;-67
2023/11/29 02:44:30;;;;;;;6.13;3.50;;;;;;;2.75;87.54;93321.03;5111259;28;20032;-67
2023/11/29 02:46:55;;;;;;;5.88;2.47;;;;;;;2.90;87.87;93357.53;5109633;28;20051;-67
2023/11/29 02:49:23;;;;;;;4.70;3.13;;;;;;;2.99;86.86;93369.66;5112412;28;20028;-67
2023/11/29 02:51:49;;;;;;;3.75;2.78;;;;;;;3.17;86.30;93375.13;5111156;28;20029;-67
2023/11/29 02:54:14;;;;;;;4.80;3.90;;;;;;;3.02;86.05;93384.81;5112331;28;20039;-67
2023/11/29 02:56:39;;;;;;;3.45;2.58;;;;;;;3.09;85.94;93392.84;5103488;28;20031;-67
2023/11/29 02:59:05;;;;;;;4.00;2.60;;;;;;;3.18;85.07;93391.38;5090588;28;20039;-67
2023/11/29 03:01:30;;;;;;;2.00;1.30;;;;;;;2.96;85.74;93387.84;5073616;28;20032;-67
2023/11/29 03:03:56;;;;;;;2.60;1.55;;;;;;;3.06;85.94;93386.19;5091785;28;20395;-67
2023/11/29 03:06:21;;;;;;;2.28;1.63;;;;;;;2.94;86.01;93389.72;5103000;28;20032;-67
2023/11/29 03:08:47;;;;;;;2.95;1.40;;;;;;;2.97;86.04;93378.41;5112091;27;20425;-67
2023/11/29 03:11:12;;;;;;;2.92;1.90;;;;;;;3.00;85.79;93389.25;5093720;28;20493;-66
2023/11/29 03:13:38;;;;;;;2.15;1.42;;;;;;;2.93;86.29;93384.72;5093750;28;20028;-67
2023/11/29 03:16:03;;;;;;;2.38;1.50;;;;;;;2.75;86.85;93356.13;5108426;28;20028;-67
2023/11/29 03:18:32;;;;;;;1.77;1.20;;;;;;;3.04;86.71;93387.28;5112032;28;20028;-68
2023/11/29 03:20:57;;;;;;;2.22;1.63;;;;;;;2.98;86.12;93383.44;5076625;28;20036;-67
2023/11/29 03:23:23;;;;;;;1.83;1.13;;;;;;;2.90;86.31;93396.84;5091803;28;20039;-67
2023/11/29 03:25:48;;;;;;;2.50;1.80;;;;;;;2.90;85.98;93394.28;5110407;28;20405;-67
2023/11/29 03:28:13;;;;;;;2.42;1.75;;;;;;;2.89;85.90;93395.19;5111612;28;20027;-67
2023/11/29 03:30:39;;;;;;;2.42;1.67;;;;;;;2.94;85.81;93399.97;5111775;28;20031;-67
2023/11/29 03:33:04;;;;;;;2.53;1.55;;;;;;;2.92;86.35;93399.25;5110447;28;20031;-67
2023/11/29 03:35:30;;;;;;;2.17;1.40;;;;;;;2.79;86.33;93398.56;5111675;28;20031;-67
2023/11/29 03:37:55;;;;;;;2.42;1.25;;;;;;;2.72;86.63;93389.69;5093158;28;20024;-67
2023/11/29 03:40:20;;;;;;;1.90;1.40;;;;;;;2.79;86.32;93388.31;5093299;28;20386;-67
2023/11/29 03:42:46;;;;;;;1.90;1.15;;;;;;;2.71;85.80;93390.63;5088935;28;20028;-67
2023/11/29 03:45:11;;;;;;;1.85;1.40;;;;;;;2.83;84.38;93400.78;5073140;28;20028;-67
2023/11/29 03:47:37;;;;;;;1.98;1.30;;;;;;;2.61;84.21;93383.59;5091025;28;20056;-67
2023/11/29 03:50:03;;;;;;;1.95;1.35;;;;;;;2.46;85.47;93388.13;5073080;28;20032;-67
2023/11/29 03:52:28;;;;;;;2.00;1.30;;;;;;;2.56;84.73;93393.38;5108071;28;20055;-67
2023/11/29 03:54:53;;;;;;;2.20;1.42;;;;;;;2.32;84.57;93395.22;5093084;28;20028;-67
2023/11/29 03:57:19;;;;;;;1.73;1.30;;;;;;;2.30;84.98;93386.81;5110180;28;20085;-67
2023/11/29 03:59:45;;;;;;;2.15;1.48;;;;;;;2.45;84.58;93385.66;5109678;28;20042;-67
2023/11/29 04:02:10;;;;;;;2.30;1.67;;;;;;;2.44;83.96;93396.88;5093143;28;20035;-67
2023/11/29 04:04:38;;;;;;;1.70;1.05;;;;;;;2.41;84.53;93405.59;5093306;28;20390;-66
2023/11/29 04:07:03;;;;;;;1.77;1.20;;;;;;;2.16;84.58;93393.75;5093073;28;20039;-67
2023/11/29 04:09:29;;;;;;;1.83;1.20;;;;;;;2.30;85.57;93423.50;5100127;28;20062;-67
2023/11/29 04:11:54;;;;;;;1.92;1.02;;;;;;;2.36;85.06;93422.25;5089403;28;20032;-67
2023/11/29 04:14:19;;;;;;;2.97;1.10;;;;;;;2.35;87.01;93415.50;5090816;28;20097;-66
2023/11/29 04:16:45;;;;;;;1.85;1.20;;;;;;;2.45;87.10;93421.56;5089642;28;20476;-67
2023/11/29 04:19:10;;;;;;;1.88;1.25;;;;;;;2.40;87.19;93408.28;5104261;28;20057;-67
2023/11/29 04:21:36;;;;;;;2.72;1.88;;;;;;;2.47;86.63;93432.53;5109896;28;20024;-66
2023/11/29 04:24:01;;;;;;;2.55;1.33;;;;;;;2.43;87.16;93434.50;5109728;28;20072;-66
2023/11/29 04:26:34;;;;;;;2.25;1.30;;;;;;;2.49;87.70;93438.38;5109795;28;20035;-67
2023/11/29 04:29:01;;;;;;;2.80;1.50;;;;;;;2.52;86.58;93443.25;5076221;28;20032;-67
2023/11/29 04:31:26;;;;;;;1.98;1.45;;;;;;;2.52;87.34;93438.13;5112672;28;20023;-66
2023/11/29 04:33:52;;;;;;;4.90;4.50;;;;;;;2.59;86.27;93439.34;5130895;27;20110;-67
2023/11/29 04:36:17;;;;;;;2.80;2.47;;;;;;;2.69;86.08;93455.66;5112195;28;20386;-67
2023/11/29 04:38:44;;;;;;;2.88;2.47;;;;;;;2.77;85.71;93461.97;5096636;28;20028;-67
2023/11/29 04:41:10;;;;;;;15.10;8.50;;;;;;;2.69;85.87;93465.09;5096544;28;20027;-67
2023/11/29 04:43:35;;;;;;;15.77;11.35;;;;;;;2.76;84.97;93457.75;5112099;28;20032;-68
2023/11/29 04:46:00;;;;;;;10.93;5.70;;;;;;;2.58;85.64;93462.50;5094817;28;20409;-67
2023/11/29 04:48:26;;;;;;;2.95;1.80;;;;;;;2.74;86.07;93467.34;5111592;28;20059;-67
2023/11/29 04:50:51;;;;;;;5.07;2.88;;;;;;;2.78;85.36;93469.56;5111096;28;20020;-67
2023/11/29 04:53:17;;;;;;;6.13;3.63;;;;;;;2.82;84.59;93459.91;5112716;28;20031;-67
2023/11/29 04:55:42;;;;;;;4.10;2.65;;;;;;;2.81;84.53;93464.19;5113440;28;20164;-67
2023/11/29 04:58:08;;;;;;;3.20;2.33;;;;;;;2.73;84.29;93456.28;5113348;28;20589;-67
2023/11/29 05:00:33;;;;;;;2.90;2.10;;;;;;;2.69;84.44;93460.78;5112606;28;20035;-67
2023/11/29 05:02:58;;;;;;;2.40;1.60;;;;;;;2.78;83.20;93459.28;5096306;28;20047;-67
2023/11/29 05:05:24;;;;;;;2.40;1.80;;;;;;;2.57;84.40;93460.88;5096105;28;20030;-67
2023/11/29 05:07:51;;;;;;;3.00;2.10;;;;;;;2.60;84.17;93458.09;5096230;28;20032;-67
2023/11/29 05:10:17;;;;;;;3.63;2.30;;;;;;;2.46;85.33;93454.78;5113991;28;20031;-66
2023/11/29 05:12:42;;;;;;;4.20;3.42;;;;;;;2.57;83.77;93451.44;5113073;28;20427;-67
2023/11/29 05:15:08;;;;;;;3.70;3.13;;;;;;;2.52;84.26;93461.22;5114307;28;20028;-67
2023/11/29 05:17:33;;;;;;;4.18;3.75;;;;;;;2.61;82.39;93473.34;5147414;27;20129;-67
2023/11/29 05:19:59;;;;;;;3.83;2.92;;;;;;;2.46;83.51;93471.91;5095353;28;20031;-67
2023/11/29 05:22:24;;;;;;;2.67;2.25;;;;;;;2.39;84.62;93460.47;5129900;27;20451;-66
2023/11/29 05:24:50;;;;;;;3.13;2.47;;;;;;;2.49;83.80;93464.00;5112833;28;20020;-67
2023/11/29 05:27:15;;;;;;;4.25;2.90;;;;;;;2.35;83.91;93477.00;5129477;27;20028;-67
2023/11/29 05:29:41;;;;;;;3.42;2.85;;;;;;;2.26;84.56;93472.50;5114057;27;20024;-67
2023/11/29 05:32:06;;;;;;;4.38;3.63;;;;;;;2.46;83.78;93479.59;5129376;27;20031;-67
2023/11/29 05:34:32;;;;;;;6.30;5.60;;;;;;;2.33;83.90;93476.28;5106676;28;20424;-67
2023/11/29 05:36:57;;;;;;;10.45;8.52;;;;;;;2.26;83.93;93469.94;5109406;28;20492;-68
2023/11/29 05:39:23;;;;;;;31.33;16.55;;;;;;;2.06;85.61;93467.06;5112636;28;20039;-68
2023/11/29 05:41:49;;;;;;;21.05;15.32;;;;;;;2.03;85.96;93469.03;5146395;27;20038;-68
2023/11/29 05:44:14;;;;;;;9.48;7.72;;;;;;;2.17;86.10;93456.06;5143493;27;20031;-66
2023/11/29 05:46:40;;;;;;;11.25;7.40;;;;;;;2.17;86.24;93476.56;5102101;28;20425;-66
2023/11/29 05:49:06;;;;;;;6.00;4.20;;;;;;;2.26;86.24;93472.50;5108335;28;20466;-67
2023/11/29 05:51:31;;;;;;;6.18;4.05;;;;;;;1.96;86.68;93481.47;5108344;28;20034;-67
2023/11/29 05:53:57;;;;;;;4.70;3.47;;;;;;;1.97;86.74;93489.03;5110284;27;20471;-67
2023/11/29 05:56:23;;;;;;;8.38;3.60;;;;;;;2.21;87.14;93471.13;5106950;28;20035;-66
2023/11/29 05:58:49;;;;;;;26.30;10.52;;;;;;;2.07;87.55;93481.53;5091307;28;20039;-66
2023/11/29 06:01:16;;;;;;;16.00;5.05;;;;;;;2.13;87.42;93487.97;5090358;28;20131;-66
2023/11/29 06:03:42;;;;;;;6.30;3.78;;;;;;;2.07;87.63;93496.91;5108591;28;20027;-67
2023/11/29 06:06:08;;;;;;;7.65;5.07;;;;;;;2.16;87.32;93496.25;5105821;28;20027;-66
2023/11/29 06:08:34;;;;;;;5.70;3.85;;;;;;;2.06;87.53;93518.31;5110053;28;20043;-66
2023/11/29 06:10:59;;;;;;;7.60;3.03;;;;;;;2.18;87.25;93502.09;5108269;28;20028;-66
2023/11/29 06:13:25;;;;;;;5.07;3.90;;;;;;;2.09;87.84;93517.28;5108750;28;20040;-67
2023/11/29 06:15:50;;;;;;;12.65;7.38;;;;;;;2.05;87.77;93510.75;5106822;28;20036;-67
2023/11/29 06:18:16;;;;;;;6.50;4.00;;;;;;;2.20;87.48;93518.19;5107948;28;20042;-66
2023/11/29 06:20:41;;;;;;;4.07;2.85;;;;;;;2.26;87.11;93503.25;5108848;28;20444;-66
2023/11/29 06:23:07;;;;;;;3.10;2.22;;;;;;;2.09;87.65;93513.00;5106755;28;20035;-66
2023/11/29 06:25:34;;;;;;;4.47;3.08;;;;;;;2.27;88.05;93517.75;5106585;28;20031;-67
2023/11/29 06:27:59;;;;;;;6.07;4.25;;;;;;;2.34;87.81;93524.03;5107300;28;20464;-66
2023/11/29 06:30:25;;;;;;;4.10;2.90;;;;;;;2.30;87.31;93531.13;5108338;28;20032;-66
2023/11/29 06:32:50;;;;;;;3.97;3.15;;;;;;;2.38;86.75;93528.03;5107463;28;20065;-66
2023/11/29 06:35:16;;;;;;;6.45;4.95;;;;;;;2.33;87.06;93519.84;5106682;28;20325;-66
2023/11/29 06:37:47;;;;;;;30.45;17.13;;;;;;;2.40;87.12;93532.13;5092667;28;20031;-66
2023/11/29 06:40:16;;;;;;;;;;;;;;;2.29;87.73;93537.22;5094498;28;20039;-67
2023/11/29 06:42:42;;;;;;;21.33;10.70;;;;;;;2.35;87.79;93528.25;5087927;28;19938;-68
2023/11/29 06:45:09;;;;;;;19.63;9.20;;;;;;;2.12;88.09;93527.34;5088459;28;20131;-68
2023/11/29 06:47:35;;;;;;;4.13;2.78;;;;;;;2.26;88.44;93536.59;5106685;28;20051;-67
2023/11/29 06:50:00;;;;;;;7.13;4.15;;;;;;;2.21;88.07;93542.06;5106691;28;20437;-66
2023/11/29 06:52:26;;;;;;;11.93;7.57;;;;;;;2.53;86.82;93538.94;5106995;28;20023;-66
2023/11/29 06:54:52;;;;;;;4.95;3.22;;;;;;;2.58;86.07;93544.56;5105116;28;20035;-68
2023/11/29 06:57:17;;;;;;;4.57;2.88;;;;;;;2.61;85.39;93540.00;5106793;28;20475;-67
2023/11/29 06:59:43;;;;;;;9.02;3.72;;;;;;;2.74;84.70;93550.22;5088475;28;20044;-67
2023/11/29 07:02:09;;;;;;;4.13;2.65;;;;;;;2.65;84.87;93556.03;5107999;28;20055;-66
2023/11/29 07:04:34;;;;;;;4.07;3.17;;;;;;;2.64;85.53;93559.50;5108922;28;20489;-67
2023/11/29 07:07:00;;;;;;;4.53;2.72;;;;;;;2.65;85.63;93558.59;5106166;28;20020;-66
2023/11/29 07:09:26;;;;;;;15.15;7.97;;;;;;;2.66;86.33;93563.59;5104309;28;20037;-66
2023/11/29 07:11:52;;;;;;;7.15;4.30;;;;;;;2.54;86.57;93574.72;5104749;28;20032;-66
2023/11/29 07:14:17;;;;;;;40.92;21.67;;;;;;;2.73;86.63;93579.38;5140209;27;20055;-67
2023/11/29 07:16:43;;;;;;;17.35;9.98;;;;;;;2.81;85.91;93581.38;5105377;28;20092;-66
2023/11/29 07:19:08;;;;;;;20.05;12.45;;;;;;;2.83;85.85;93590.59;5104993;28;20027;-67
2023/11/29 07:21:34;;;;;;;14.20;8.57;;;;;;;2.88;85.59;93580.00;5106390;28;20035;-66
2023/11/29 07:23:59;;;;;;;4.88;2.50;;;;;;;2.97;85.22;93592.16;5106735;28;20031;-67
2023/11/29 07:26:24;;;;;;;5.35;2.67;;;;;;;2.87;85.27;93606.56;5089365;28;20068;-67
2023/11/29 07:28:50;;;;;;;6.15;3.85;;;;;;;2.90;85.41;93598.69;5105483;28;20730;-67
2023/11/29 07:31:15;;;;;;;24.50;13.02;;;;;;;3.05;85.14;93625.78;5072588;28;20031;-67
2023/11/29 07:33:41;;;;;;;7.47;5.47;;;;;;;3.11;84.11;93625.31;5107142;28;20023;-67
2023/11/29 07:36:11;;;;;;;3.70;2.65;;;;;;;2.97;84.95;93617.81;5089472;28;20413;-67
2023/11/29 07:38:37;;;;;;;5.47;4.00;;;;;;;2.97;85.84;93609.31;5135780;27;20059;-67
2023/11/29 07:41:03;;;;;;;5.45;3.53;;;;;;;2.94;85.82;93607.78;5101067;28;20043;-67
2023/11/29 07:43:29;;;;;;;3.72;2.63;;;;;;;3.03;85.71;93593.47;5107476;28;20477;-67
2023/11/29 07:45:54;;;;;;;4.00;2.90;;;;;;;2.91;85.84;93590.03;5103031;28;20027;-66
2023/11/29 07:48:21;;;;;;;6.20;4.20;;;;;;;2.53;86.69;93573.06;5105848;28;20056;-66
2023/11/29 07:50:49;;;;;;;5.57;3.97;;;;;;;2.96;86.91;93599.97;5104007;28;20106;-68
2023/11/29 07:53:14;;;;;;;6.57;3.83;;;;;;;3.20;86.68;93617.91;5088975;28;20154;-66
2023/11/29 07:55:40;;;;;;;6.68;5.05;;;;;;;3.40;86.13;93621.56;5107314;28;20028;-66
2023/11/29 07:58:05;;;;;;;6.13;4.30;;;;;;;3.50;85.69;93622.53;5106346;28;20023;-66
2023/11/29 08:00:31;;;;;;;11.38;7.97;;;;;;;3.56;84.42;93628.00;5104682;28;20028;-67
2023/11/29 08:02:56;;;;;;;8.52;6.63;;;;;;;3.57;84.83;93632.25;5139772;27;20489;-67
2023/11/29 08:05:27;;;;;;;7.90;5.20;;;;;;;3.52;85.60;93606.06;5104511;28;20076;-68
2023/11/29 08:07:52;;;;;;;4.93;3.63;;;;;;;3.71;84.93;93612.41;5102886;28;20027;-67
2023/11/29 08:10:17;;;;;;;4.43;3.42;;;;;;;3.79;85.07;93613.47;5104965;28;20520;-67
2023/11/29 08:12:43;;;;;;;4.05;2.85;;;;;;;3.79;85.23;93615.22;5101743;28;20028;-67
2023/11/29 08:15:09;;;;;;;5.25;3.10;;;;;;;3.96;84.94;93614.78;5105474;28;20024;-67
2023/11/29 08:17:34;;;;;;;4.38;3.00;;;;;;;3.91;82.70;93610.91;5105955;28;20128;-67
2023/11/29 08:19:59;;;;;;;4.13;2.90;;;;;;;4.09;82.83;93631.81;5086064;28;20040;-67
2023/11/29 08:22:25;;;;;;;5.28;2.75;;;;;;;4.18;80.83;93626.81;5107263;28;20023;-67
2023/11/29 08:24:50;;;;;;;3.95;3.25;;;;;;;4.18;82.75;93624.22;5103815;28;20529;-67
2023/11/29 08:27:18;;;;;;;4.65;3.83;;;;;;;4.18;80.36;93618.25;5104786;28;20039;-67
2023/11/29 08:29:44;;;;;;;5.00;3.88;;;;;;;4.14;79.84;93620.25;5104754;28;20039;-67
2023/11/29 08:32:09;;;;;;;3.78;3.05;;;;;;;4.16;80.94;93633.00;5106903;28;20565;-67
2023/11/29 08:34:35;;;;;;;5.88;4.38;;;;;;;3.95;81.85;93614.88;5105296;28;20036;-67
2023/11/29 08:37:00;;;;;;;13.30;9.45;;;;;;;4.10;81.62;93628.31;5106687;28;20024;-67
2023/11/29 08:39:26;;;;;;;43.92;21.40;;;;;;;4.24;81.03;93625.50;5087070;28;20082;-67
2023/11/29 08:41:51;;;;;;;46.60;24.67;;;;;;;4.28;81.24;93642.31;5105286;28;20085;-68
2023/11/29 08:44:18;;;;;;;31.00;20.30;;;;;;;4.46;80.42;93652.97;5103526;28;20449;-67
2023/11/29 08:46:43;;;;;;;30.65;19.30;;;;;;;4.45;80.77;93652.13;5104061;28;20039;-67
2023/11/29 08:49:08;;;;;;;26.00;16.77;;;;;;;4.41;80.53;93663.59;5105364;28;20436;-66
2023/11/29 08:51:34;;;;;;;16.20;11.65;;;;;;;4.23;80.79;93647.00;5105145;28;20092;-68
2023/11/29 08:53:59;;;;;;;24.33;15.93;;;;;;;4.43;79.98;93660.88;5105016;28;20116;-67
2023/11/29 08:56:25;;;;;;;18.45;12.50;;;;;;;4.47;80.10;93657.16;5105514;28;20438;-67
2023/11/29 08:58:50;;;;;;;24.35;15.23;;;;;;;4.55;79.88;93654.00;5106394;28;20554;-67
2023/11/29 09:01:17;;;;;;;19.13;11.50;;;;;;;4.61;79.67;93645.81;5105006;28;20561;-67
2023/11/29 09:03:42;;;;;;;11.88;9.05;;;;;;;4.44;79.94;93653.06;5105543;28;20493;-67
2023/11/29 09:06:08;;;;;;;14.25;9.43;;;;;;;4.39;80.54;93654.38;5088286;28;20031;-67
2023/11/29 09:08:33;;;;;;;10.93;8.73;;;;;;;4.19;80.26;93658.47;5104553;28;20063;-67
2023/11/29 09:10:59;;;;;;;11.82;8.00;;;;;;;4.21;80.43;93657.41;5087877;28;20489;-67
2023/11/29 09:13:26;;;;;;;13.85;9.52;;;;;;;4.35;80.83;93652.97;5106326;28;20477;-67
2023/11/29 09:15:51;;;;;;;13.95;9.57;;;;;;;4.21;81.04;93647.13;5110053;28;20026;-67
2023/11/29 09:18:16;;;;;;;15.43;9.50;;;;;;;4.14;81.79;93658.00;5091598;28;20036;-67
2023/11/29 09:20:43;;;;;;;13.77;10.20;;;;;;;4.22;80.92;93638.47;5107321;28;20040;-67
2023/11/29 09:23:09;;;;;;;14.07;9.68;;;;;;;4.20;80.37;93645.47;5108886;28;20161;-68
2023/11/29 09:25:36;;;;;;;11.27;9.10;;;;;;;4.19;80.31;93638.72;5110760;27;20105;-67
2023/11/29 09:28:06;;;;;;;10.85;7.43;;;;;;;4.15;80.04;93660.47;5092285;27;20024;-67
2023/11/29 09:30:34;;;;;;;9.52;7.68;;;;;;;4.17;80.16;93640.56;5106993;27;20031;-67
2023/11/29 09:33:00;;;;;;;12.30;9.23;;;;;;;4.20;79.57;93660.09;5108995;27;20040;-67
2023/11/29 09:35:25;;;;;;;10.63;8.50;;;;;;;4.32;79.75;93654.03;5091225;28;20043;-67
2023/11/29 09:37:50;;;;;;;11.20;8.98;;;;;;;4.33;77.68;93640.22;5108643;28;20028;-67
2023/11/29 09:40:16;;;;;;;12.57;8.70;;;;;;;4.33;77.96;93640.22;5108502;27;20035;-67
2023/11/29 09:42:42;;;;;;;11.15;8.20;;;;;;;4.34;77.46;93656.47;5108127;27;20019;-67
2023/11/29 09:45:10;;;;;;;12.05;9.45;;;;;;;4.17;78.31;93629.47;5091589;28;20104;-68
2023/11/29 09:47:35;;;;;;;13.35;10.48;;;;;;;4.17;79.67;93660.31;5108393;28;20063;-67
2023/11/29 09:50:01;;;;;;;16.88;11.27;;;;;;;4.38;77.70;93647.59;5073059;28;20072;-67
2023/11/29 09:52:26;;;;;;;13.57;10.38;;;;;;;4.36;78.22;93667.47;5093475;28;20078;-67
2023/11/29 09:54:51;;;;;;;19.23;12.48;;;;;;;4.25;79.19;93670.84;5110147;28;20023;-67
2023/11/29 09:57:17;;;;;;;20.55;13.70;;;;;;;4.13;79.71;93639.19;5109968;28;20035;-67
2023/11/29 09:59:42;;;;;;;18.98;12.82;;;;;;;4.54;77.93;93670.34;5107532;28;20040;-67
2023/11/29 10:02:08;;;;;;;19.13;12.70;;;;;;;4.56;78.81;93673.63;5102916;28;20039;-67
2023/11/29 10:04:39;;;;;;;16.83;11.45;;;;;;;4.75;77.90;93670.47;5108311;28;20032;-67
2023/11/29 10:07:05;;;;;;;20.67;12.88;;;;;;;4.87;77.29;93670.28;5109406;28;20425;-67
2023/11/29 10:09:36;;;;;;;18.52;14.13;;;;;;;4.89;77.65;93678.72;5108211;28;20428;-67
2023/11/29 10:12:01;;;;;;;15.47;11.73;;;;;;;4.74;78.12;93685.09;5109093;28;20062;-67
2023/11/29 10:14:29;;;;;;;15.98;12.20;;;;;;;4.65;78.13;93675.50;5109063;28;20036;-68
2023/11/29 10:16:54;;;;;;;25.27;15.38;;;;;;;4.51;78.18;93668.03;5109335;28;20027;-68
2023/11/29 10:19:20;;;;;;;15.45;11.82;;;;;;;4.68;77.51;93670.94;5087073;28;20424;-67
2023/11/29 10:21:48;;;;;;;17.00;11.70;;;;;;;4.76;77.16;93665.19;5073060;28;20486;-68
2023/11/29 10:24:17;;;;;;;25.58;18.90;;;;;;;4.65;77.33;93670.34;5107713;28;20088;-68
2023/11/29 10:26:42;;;;;;;20.17;14.60;;;;;;;4.81;76.71;93664.81;5073383;28;20061;-68
2023/11/29 10:29:09;;;;;;;24.00;17.42;;;;;;;4.69;76.93;93653.75;5106478;28;20096;-70
2023/11/29 10:31:35;;;;;;;15.05;11.77;;;;;;;4.79;78.43;93674.41;5108160;28;20507;-67
2023/11/29 10:34:00;;;;;;;15.80;11.27;;;;;;;4.78;78.06;93683.91;5108001;28;20032;-67
2023/11/29 10:36:26;;;;;;;15.68;11.00;;;;;;;4.75;78.24;93683.31;5089212;28;20027;-68
2023/11/29 10:39:00;;;;;;;18.02;13.88;;;;;;;4.69;78.32;93672.56;5106428;28;20044;-68
2023/11/29 10:41:26;;;;;;;20.13;14.25;;;;;;;4.89;78.16;93689.03;5073788;28;20369;-67
2023/11/29 10:43:51;;;;;;;18.25;13.93;;;;;;;4.96;78.61;93683.38;5090787;28;20081;-67
2023/11/29 10:46:28;;;;;;;22.17;15.88;;;;;;;4.99;79.07;93683.97;5089827;28;20032;-68
2023/11/29 10:49:14;;;;;;;20.75;14.82;;;;;;;4.82;79.21;93684.47;5088445;28;20051;-66
2023/11/29 10:51:40;;;;;;;18.67;13.82;;;;;;;4.86;78.99;93689.25;5123071;27;20046;-65
2023/11/29 10:54:06;;;;;;;16.60;12.02;;;;;;;4.84;79.05;93695.47;5106733;28;20444;-66
2023/11/29 10:56:31;;;;;;;15.25;11.57;;;;;;;4.82;78.87;93669.03;5090095;28;20404;-67
2023/11/29 10:59:05;;;;;;;18.52;14.20;;;;;;;4.55;80.72;93683.13;5088631;28;20046;-68
2023/11/29 11:01:34;;;;;;;38.22;25.45;;;;;;;4.71;80.54;93693.03;5073318;28;20040;-68
2023/11/29 11:03:59;;;;;;;23.02;18.00;;;;;;;4.52;81.40;93687.69;5089773;28;20126;-66
2023/11/29 11:06:29;;;;;;;26.63;18.13;;;;;;;4.70;81.21;93693.97;5108053;28;20031;-66
2023/11/29 11:08:55;;;;;;;22.15;17.55;;;;;;;4.65;81.22;93680.63;5105722;28;20039;-67
2023/11/29 11:11:39;;;;;;;24.38;18.10;;;;;;;4.69;81.29;93698.28;5107457;28;20096;-67
2023/11/29 11:14:04;;;;;;;23.58;17.00;;;;;;;4.68;81.18;93699.25;5108299;28;20046;-67
2023/11/29 11:16:30;;;;;;;25.90;18.52;;;;;;;4.39;81.49;93696.31;5073204;28;20023;-67
2023/11/29 11:18:55;;;;;;;28.75;19.20;;;;;;;4.52;81.67;93690.25;5104663;28;20044;-67
2023/11/29 11:21:21;;;;;;;32.80;22.73;;;;;;;4.77;81.12;93715.72;5072483;28;20024;-68
2023/11/29 11:23:47;;;;;;;35.33;22.70;;;;;;;4.75;81.36;93699.56;5089476;28;20039;-68
2023/11/29 11:26:12;;;;;;;29.23;19.92;;;;;;;4.77;81.44;93705.44;5089043;28;20145;-68
2023/11/29 11:28:39;;;;;;;29.10;20.88;;;;;;;4.85;81.06;93730.56;5106172;28;20474;-67
2023/11/29 11:31:08;;;;;;;29.10;20.70;;;;;;;4.65;81.69;93721.78;5108015;28;20024;-67